Sao Goncalo do Abaete, Brazil
Current Conditions -  °F | °C
As of 11:00 AM on Saturday 22 Nov 2014 (Local Time) from SBLS Reporting Station
Scattered Clouds Scattered Clouds  
Wind Chill: 79°   Ceiling: Unl
Heat Index: 80°   Visibility: 6mi
Dew Point: 63°   Wind: 5mph
Humidity: 57%   Direction: 70°ENE
Pressure: 30.06"   Gusts: NA
Location:  18.34°S, 45.83°W
Report Text: SBLS 221300Z 07004KT 9999 SCT020 26/17 Q1018
Loading
Personal Weather Stations






























Interactive Weather Map New forecast layout! Learn more

10-Day Weather Forecast

Advertisements
Track Severe Weather on mobile